createdAt,value
2018-05-18T00:00:57.303Z,5.07
2018-05-18T00:03:24.348Z,4.53
2018-05-18T00:05:51.394Z,4.80
2018-05-18T00:08:19.308Z,5.80
2018-05-18T00:10:46.342Z,4.00
2018-05-18T00:13:13.393Z,4.13
2018-05-18T00:15:40.372Z,4.43
2018-05-18T00:18:07.364Z,4.73
2018-05-18T00:20:34.400Z,5.00
2018-05-18T00:23:01.412Z,4.07
2018-05-18T00:25:29.203Z,4.97
2018-05-18T00:27:56.217Z,4.90
2018-05-18T00:30:23.274Z,4.73
2018-05-18T00:32:50.305Z,4.07
2018-05-18T00:35:17.298Z,4.77
2018-05-18T00:37:44.336Z,3.80
2018-05-18T00:40:11.344Z,5.03
2018-05-18T00:42:38.361Z,4.50
2018-05-18T00:45:05.365Z,5.83
2018-05-18T00:47:32.398Z,5.20
2018-05-18T00:49:59.472Z,5.10
2018-05-18T00:52:26.493Z,4.87
2018-05-18T00:54:54.264Z,4.73
2018-05-18T00:57:22.444Z,5.83
2018-05-18T00:59:49.472Z,4.10
2018-05-18T01:02:16.494Z,4.50
2018-05-18T01:04:43.585Z,4.40
2018-05-18T01:07:10.545Z,4.70
2018-05-18T01:09:37.573Z,4.17
2018-05-18T01:12:05.368Z,5.43
2018-05-18T01:14:32.364Z,4.57
2018-05-18T01:16:59.373Z,4.97
2018-05-18T01:19:26.403Z,5.17
2018-05-18T01:21:53.439Z,5.63
2018-05-18T01:24:20.525Z,4.70
2018-05-18T01:26:47.523Z,5.57
2018-05-18T01:29:15.296Z,5.80
2018-05-18T01:31:43.126Z,5.20
2018-05-18T01:34:10.224Z,5.17
2018-05-18T01:36:37.187Z,5.73
2018-05-18T01:39:05.141Z,5.10
2018-05-18T01:41:32.174Z,5.00
2018-05-18T01:43:59.209Z,5.40
2018-05-18T01:46:26.945Z,4.70
2018-05-18T01:48:53.980Z,5.00
2018-05-18T01:51:20.972Z,5.37
2018-05-18T01:53:48.409Z,4.10
2018-05-18T01:56:15.627Z,4.77
2018-05-18T01:58:42.798Z,4.67
2018-05-18T02:01:09.933Z,5.03
2018-05-18T02:03:36.924Z,4.33
2018-05-18T02:06:03.972Z,4.80
2018-05-18T02:08:31.237Z,5.77
2018-05-18T02:10:58.506Z,4.83
2018-05-18T02:13:25.548Z,5.20
2018-05-18T02:15:53.472Z,4.63
2018-05-18T02:18:20.636Z,4.60
2018-05-18T02:20:48.376Z,5.20
2018-05-18T02:23:16.194Z,4.90
2018-05-18T02:25:43.224Z,4.50
2018-05-18T02:28:10.232Z,4.10
2018-05-18T02:30:37.435Z,4.30
2018-05-18T02:33:04.505Z,4.57
2018-05-18T02:35:31.542Z,4.47
2018-05-18T02:37:58.560Z,4.57
2018-05-18T02:40:26.327Z,3.83
2018-05-18T02:42:53.476Z,4.37
2018-05-18T02:45:21.233Z,4.67
2018-05-18T02:47:49.008Z,4.03
2018-05-18T02:50:16.044Z,4.37
2018-05-18T02:52:43.786Z,4.70
2018-05-18T02:55:11.102Z,4.60
2018-05-18T02:57:38.211Z,4.80
2018-05-18T03:00:05.449Z,4.90
2018-05-18T03:02:32.508Z,4.13
2018-05-18T03:05:00.269Z,4.47
2018-05-18T03:07:28.044Z,4.83
2018-05-18T03:09:55.065Z,4.63
2018-05-18T03:12:22.081Z,4.43
2018-05-18T03:14:49.081Z,5.10
2018-05-18T03:17:17.011Z,4.17
2018-05-18T03:19:44.018Z,4.57
2018-05-18T03:22:11.036Z,5.17
2018-05-18T03:24:39.032Z,5.10
2018-05-18T03:27:06.053Z,4.37
2018-05-18T03:29:33.835Z,4.00
2018-05-18T03:32:00.863Z,5.17
2018-05-18T03:34:27.895Z,4.10
2018-05-18T03:36:54.905Z,3.80
2018-05-18T03:39:21.940Z,4.13
2018-05-18T03:41:48.996Z,4.43
2018-05-18T03:44:16.033Z,4.90
2018-05-18T03:46:43.036Z,4.67
2018-05-18T03:49:10.808Z,4.80
2018-05-18T03:51:38.592Z,3.93
2018-05-18T03:54:05.633Z,4.87
2018-05-18T03:56:32.683Z,4.10
2018-05-18T03:58:59.692Z,4.07
2018-05-18T04:01:45.176Z,4.33
2018-05-18T04:04:31.337Z,4.83
2018-05-18T04:07:16.966Z,4.20
2018-05-18T04:09:44.227Z,4.63
2018-05-18T04:12:11.433Z,4.63
2018-05-18T04:14:38.480Z,4.50
2018-05-18T04:17:06.477Z,4.77
2018-05-18T04:19:33.548Z,5.87
2018-05-18T04:22:01.564Z,4.90
2018-05-18T04:24:28.695Z,5.20
2018-05-18T04:26:55.724Z,4.93
2018-05-18T04:29:22.792Z,4.40
2018-05-18T04:31:49.825Z,5.47
2018-05-18T04:34:16.882Z,4.43
2018-05-18T04:36:43.896Z,5.47
2018-05-18T04:39:11.655Z,5.50
2018-05-18T04:41:38.721Z,4.93
2018-05-18T04:44:06.356Z,5.90
2018-05-18T04:46:33.761Z,4.50
2018-05-18T04:49:01.600Z,6.30
2018-05-18T04:51:28.670Z,5.00
2018-05-18T04:53:55.933Z,5.37
2018-05-18T04:56:22.951Z,4.60
2018-05-18T04:58:50.084Z,6.03
2018-05-18T05:01:17.085Z,4.90
2018-05-18T05:03:44.107Z,4.77
2018-05-18T05:06:11.131Z,5.50
2018-05-18T05:08:38.358Z,5.20
2018-05-18T05:11:05.410Z,5.67
2018-05-18T05:13:32.413Z,4.77
2018-05-18T05:15:59.419Z,5.70
2018-05-18T05:18:26.420Z,5.77
2018-05-18T05:20:53.431Z,5.10
2018-05-18T05:23:20.483Z,6.73
2018-05-18T05:25:47.490Z,5.70
2018-05-18T05:28:14.566Z,5.33
2018-05-18T05:30:41.514Z,7.23
2018-05-18T05:33:09.284Z,5.47
2018-05-18T05:35:36.313Z,6.10
2018-05-18T05:38:04.068Z,5.50
2018-05-18T05:40:31.819Z,5.43
2018-05-18T05:42:58.841Z,5.23
2018-05-18T05:45:25.847Z,5.43
2018-05-18T05:47:52.887Z,5.50
2018-05-18T05:50:19.902Z,5.40
2018-05-18T05:52:47.751Z,5.07
2018-05-18T05:55:14.741Z,5.47
2018-05-18T05:57:42.481Z,6.47
2018-05-18T06:00:09.548Z,5.00
2018-05-18T06:02:37.312Z,4.77
2018-05-18T06:05:05.077Z,6.20
2018-05-18T06:07:32.076Z,7.00
2018-05-18T06:09:59.095Z,6.33
2018-05-18T06:12:26.325Z,6.00
2018-05-18T06:14:54.133Z,6.17
2018-05-18T06:17:21.149Z,5.53
2018-05-18T06:19:48.151Z,6.00
2018-05-18T06:22:15.160Z,6.17
2018-05-18T06:24:42.168Z,6.27
2018-05-18T06:27:09.179Z,5.50
2018-05-18T06:29:36.179Z,6.40
2018-05-18T06:32:03.217Z,5.63
2018-05-18T06:34:31.042Z,8.63
2018-05-18T06:36:58.028Z,7.60
2018-05-18T06:39:25.041Z,6.80
2018-05-18T06:41:52.069Z,6.00
2018-05-18T06:44:19.060Z,7.00
2018-05-18T06:46:46.099Z,6.70
2018-05-18T06:49:13.275Z,5.43
2018-05-18T06:51:40.333Z,5.43
2018-05-18T06:54:08.071Z,6.60
2018-05-18T06:56:35.870Z,6.40
2018-05-18T06:59:02.935Z,5.90
2018-05-18T07:01:29.948Z,7.10
2018-05-18T07:03:57.678Z,6.23
2018-05-18T07:06:25.500Z,5.83
2018-05-18T07:08:52.516Z,6.57
2018-05-18T07:11:20.271Z,6.10
2018-05-18T07:13:48.048Z,6.90
2018-05-18T07:16:15.809Z,6.10
2018-05-18T07:18:42.837Z,6.13
2018-05-18T07:21:09.850Z,6.70
2018-05-18T07:23:36.880Z,6.33
2018-05-18T07:26:03.892Z,5.07
2018-05-18T07:28:31.628Z,6.43
2018-05-18T07:30:58.628Z,6.67
2018-05-18T07:33:25.613Z,6.43
2018-05-18T07:35:52.623Z,6.30
2018-05-18T07:38:19.636Z,6.83
2018-05-18T07:40:47.385Z,7.87
2018-05-18T07:43:14.427Z,6.23
2018-05-18T07:45:41.428Z,5.90
2018-05-18T07:48:09.315Z,5.87
2018-05-18T07:50:36.330Z,5.53
2018-05-18T07:53:03.360Z,6.07
2018-05-18T07:55:31.103Z,5.43
2018-05-18T07:57:58.121Z,5.30
2018-05-18T08:00:25.120Z,6.00
2018-05-18T08:02:52.148Z,6.40
2018-05-18T08:05:19.913Z,6.10
2018-05-18T08:07:46.997Z,5.30
2018-05-18T08:10:13.972Z,6.40
2018-05-18T08:12:41.028Z,6.47
2018-05-18T08:15:08.087Z,6.50
2018-05-18T08:17:35.057Z,6.20
2018-05-18T08:20:02.073Z,5.80
2018-05-18T08:22:29.075Z,6.57
2018-05-18T08:24:56.086Z,7.20
2018-05-18T08:27:23.181Z,6.00
2018-05-18T08:29:50.194Z,6.70
2018-05-18T08:32:17.208Z,6.37
2018-05-18T08:34:44.259Z,6.47
2018-05-18T08:37:11.280Z,6.00
2018-05-18T08:39:38.287Z,5.87
2018-05-18T08:42:05.335Z,5.67
2018-05-18T08:44:33.088Z,6.97
2018-05-18T08:47:00.877Z,6.70
2018-05-18T08:49:28.629Z,7.13
2018-05-18T08:51:56.390Z,7.27
2018-05-18T08:54:24.152Z,6.90
2018-05-18T08:56:51.161Z,6.90
2018-05-18T08:59:18.208Z,6.90
2018-05-18T09:01:45.240Z,5.60
2018-05-18T09:04:12.275Z,6.37
2018-05-18T09:06:39.334Z,7.37
2018-05-18T09:09:06.347Z,7.13
2018-05-18T09:11:33.551Z,5.93
2018-05-18T09:14:00.628Z,6.27
2018-05-18T09:16:27.645Z,5.90
2018-05-18T09:18:54.677Z,6.77
2018-05-18T09:21:21.677Z,6.30
2018-05-18T09:23:49.446Z,6.17
2018-05-18T09:26:16.477Z,6.50
2018-05-18T09:28:43.497Z,6.10
2018-05-18T09:31:10.527Z,6.07
2018-05-18T09:33:37.544Z,6.17
2018-05-18T09:36:04.561Z,6.43
2018-05-18T09:38:31.589Z,5.50
2018-05-18T09:40:58.599Z,6.27
2018-05-18T09:43:26.083Z,5.80
2018-05-18T09:45:53.233Z,5.80
2018-05-18T09:48:20.236Z,5.60
2018-05-18T09:50:47.989Z,6.53
2018-05-18T09:53:14.989Z,6.40
2018-05-18T09:55:41.993Z,5.53
2018-05-18T09:58:10.108Z,5.43
2018-05-18T10:00:37.963Z,8.43
2018-05-18T10:03:04.980Z,6.30
2018-05-18T10:05:32.224Z,6.77
2018-05-18T10:08:00.297Z,6.00
2018-05-18T10:10:27.410Z,6.20
2018-05-18T10:12:54.457Z,6.50
2018-05-18T10:15:21.472Z,7.17
2018-05-18T10:17:48.475Z,5.70
2018-05-18T10:20:15.481Z,5.50
2018-05-18T10:22:42.507Z,6.47
2018-05-18T10:25:09.516Z,6.63
2018-05-18T10:27:37.492Z,7.13
2018-05-18T10:30:04.561Z,6.17
2018-05-18T10:32:31.596Z,6.40
2018-05-18T10:34:59.368Z,6.07
2018-05-18T10:37:26.372Z,6.00
2018-05-18T10:39:53.388Z,5.47
2018-05-18T10:42:20.416Z,6.10
2018-05-18T10:44:47.405Z,5.00
2018-05-18T10:47:14.436Z,5.80
2018-05-18T10:49:41.716Z,5.30
2018-05-18T10:52:09.045Z,5.93
2018-05-18T10:54:36.220Z,5.17
2018-05-18T10:57:03.976Z,5.13
2018-05-18T10:59:30.989Z,5.70
2018-05-18T11:01:58.025Z,5.10
2018-05-18T11:04:25.043Z,5.73
2018-05-18T11:06:52.820Z,5.33
2018-05-18T11:09:20.565Z,6.30
2018-05-18T11:11:48.721Z,5.87
2018-05-18T11:14:15.818Z,5.40
2018-05-18T11:16:43.157Z,5.80
2018-05-18T11:19:10.472Z,5.57
2018-05-18T11:21:37.595Z,5.03
2018-05-18T11:24:04.648Z,8.17
2018-05-18T11:26:31.676Z,6.80
2018-05-18T11:28:58.952Z,7.13
2018-05-18T11:31:26.136Z,6.10
2018-05-18T11:33:54.074Z,6.20
2018-05-18T11:36:21.178Z,6.47
2018-05-18T11:38:49.242Z,6.50
2018-05-18T11:41:16.444Z,6.20
2018-05-18T11:43:43.637Z,5.87
2018-05-18T11:46:10.677Z,5.90
2018-05-18T11:48:37.912Z,5.87
2018-05-18T11:51:05.019Z,6.57
2018-05-18T11:53:32.021Z,23.33
2018-05-18T11:55:59.049Z,7.37
2018-05-18T11:58:26.065Z,6.20
2018-05-18T12:00:53.249Z,6.47
2018-05-18T12:03:20.444Z,6.30
2018-05-18T12:05:47.497Z,6.27
2018-05-18T12:08:14.816Z,6.40
2018-05-18T12:10:41.932Z,6.40
2018-05-18T12:13:09.066Z,6.20
2018-05-18T12:15:36.172Z,6.77
2018-05-18T12:18:03.994Z,6.30
2018-05-18T12:20:31.153Z,6.00
2018-05-18T12:22:58.192Z,5.10
2018-05-18T12:25:25.516Z,6.70
2018-05-18T12:27:52.574Z,5.93
2018-05-18T12:30:20.492Z,6.67
2018-05-18T12:32:48.348Z,6.13
2018-05-18T12:35:15.477Z,6.23
2018-05-18T12:37:42.730Z,6.47
2018-05-18T12:40:09.944Z,6.37
2018-05-18T12:42:37.186Z,6.10
2018-05-18T12:45:04.502Z,6.47
2018-05-18T12:47:32.381Z,6.10
2018-05-18T12:50:00.289Z,6.17
2018-05-18T12:52:28.368Z,5.70
2018-05-18T12:54:55.589Z,6.80
2018-05-18T12:57:22.842Z,5.60
2018-05-18T12:59:49.966Z,6.60
2018-05-18T13:02:17.969Z,5.90
2018-05-18T13:04:45.038Z,6.30
2018-05-18T13:07:13.117Z,5.53
2018-05-18T13:09:40.208Z,6.30
2018-05-18T13:12:07.205Z,6.17
2018-05-18T13:14:34.292Z,5.80
2018-05-18T13:17:01.550Z,5.47
2018-05-18T13:19:28.721Z,6.60
2018-05-18T13:21:56.526Z,5.60
2018-05-18T13:24:23.585Z,6.17
2018-05-18T13:26:51.029Z,6.30
2018-05-18T13:29:18.110Z,5.80
2018-05-18T13:31:45.953Z,5.63
2018-05-18T13:34:13.064Z,6.90
2018-05-18T13:36:42.056Z,6.70
2018-05-18T13:39:09.310Z,6.20
2018-05-18T13:41:36.538Z,6.83
2018-05-18T13:44:03.709Z,6.10
2018-05-18T13:46:30.870Z,6.70
2018-05-18T13:48:57.961Z,5.47
2018-05-18T13:51:25.042Z,6.07
2018-05-18T13:53:52.193Z,6.17
2018-05-18T13:56:19.418Z,6.10
2018-05-18T13:58:46.444Z,6.30
2018-05-18T14:01:13.509Z,6.20
2018-05-18T14:03:40.568Z,6.53
2018-05-18T14:06:07.608Z,6.20
2018-05-18T14:08:34.652Z,6.47
2018-05-18T14:11:01.761Z,5.60
2018-05-18T14:13:28.720Z,5.60
2018-05-18T14:15:56.444Z,5.63
2018-05-18T14:18:24.260Z,6.73
2018-05-18T14:20:51.583Z,6.57
2018-05-18T14:23:18.684Z,6.53
2018-05-18T14:25:47.008Z,6.00
2018-05-18T14:28:14.203Z,5.50
2018-05-18T14:30:42.118Z,5.90
2018-05-18T14:33:10.221Z,5.33
2018-05-18T14:35:37.457Z,5.20
2018-05-18T14:38:04.846Z,6.20
2018-05-18T14:40:33.134Z,5.80
2018-05-18T14:43:00.206Z,7.10
2018-05-18T14:45:27.179Z,6.83
2018-05-18T14:47:54.920Z,7.57
2018-05-18T14:50:21.957Z,7.17
2018-05-18T14:52:48.961Z,6.10
2018-05-18T14:55:16.190Z,6.70
2018-05-18T14:57:43.256Z,5.77
2018-05-18T15:00:10.316Z,5.83
2018-05-18T15:02:37.344Z,6.70
2018-05-18T15:05:04.357Z,6.93
2018-05-18T15:07:31.433Z,7.10
2018-05-18T15:09:58.481Z,6.70
2018-05-18T15:12:26.240Z,7.90
2018-05-18T15:14:53.294Z,8.13
2018-05-18T15:17:21.336Z,7.30
2018-05-18T15:19:48.548Z,7.40
2018-05-18T15:22:15.761Z,6.90
2018-05-18T15:24:42.805Z,5.33
2018-05-18T15:27:10.591Z,6.27
2018-05-18T15:29:37.615Z,6.30
2018-05-18T15:32:05.621Z,6.70
2018-05-18T15:34:32.841Z,7.20
2018-05-18T15:37:00.008Z,6.97
2018-05-18T15:39:27.300Z,7.53
2018-05-18T15:41:54.392Z,7.10
2018-05-18T15:44:21.406Z,7.37
2018-05-18T15:46:48.517Z,7.17
2018-05-18T15:49:15.536Z,6.77
2018-05-18T15:51:42.588Z,7.13
2018-05-18T15:54:09.595Z,6.90
2018-05-18T15:56:36.583Z,7.13
2018-05-18T15:59:03.668Z,8.30
2018-05-18T16:01:30.702Z,7.83
2018-05-18T16:03:58.056Z,8.47
2018-05-18T16:06:26.061Z,8.67
2018-05-18T16:08:53.895Z,8.70
2018-05-18T16:11:21.075Z,8.63
2018-05-18T16:13:48.365Z,9.03
2018-05-18T16:16:15.452Z,7.90
2018-05-18T16:18:42.564Z,8.10
2018-05-18T16:21:09.631Z,8.23
2018-05-18T16:23:36.660Z,7.90
2018-05-18T16:26:03.701Z,7.33
2018-05-18T16:28:30.720Z,8.37
2018-05-18T16:30:58.488Z,7.30
2018-05-18T16:33:26.347Z,6.40
2018-05-18T16:35:53.360Z,6.97
2018-05-18T16:38:20.478Z,7.17
2018-05-18T16:40:47.521Z,7.10
2018-05-18T16:43:15.290Z,8.10
2018-05-18T16:45:42.467Z,8.00
2018-05-18T16:48:09.673Z,7.00
2018-05-18T16:50:36.754Z,7.40
2018-05-18T16:53:04.676Z,7.30
2018-05-18T16:55:32.610Z,7.20
2018-05-18T16:57:59.663Z,7.27
2018-05-18T17:00:26.933Z,6.70
2018-05-18T17:02:54.873Z,7.10
2018-05-18T17:05:22.189Z,7.20
2018-05-18T17:07:49.417Z,7.87
2018-05-18T17:10:17.416Z,7.00
2018-05-18T17:12:44.521Z,7.17
2018-05-18T17:15:11.864Z,8.50
2018-05-18T17:17:39.140Z,8.90
2018-05-18T17:20:06.369Z,8.33
2018-05-18T17:22:33.431Z,9.13
2018-05-18T17:25:00.440Z,8.63
2018-05-18T17:27:27.600Z,8.13
2018-05-18T17:29:54.684Z,8.90
2018-05-18T17:32:21.764Z,8.90
2018-05-18T17:34:49.562Z,8.27
2018-05-18T17:37:17.450Z,8.27
2018-05-18T17:39:44.701Z,9.27
2018-05-18T17:42:12.117Z,8.53
2018-05-18T17:44:39.197Z,8.20
2018-05-18T17:47:06.548Z,8.90
2018-05-18T17:49:33.720Z,8.53
2018-05-18T17:52:00.922Z,9.00
2018-05-18T17:54:28.254Z,8.93
2018-05-18T17:56:56.253Z,8.33
2018-05-18T17:59:23.473Z,9.87
2018-05-18T18:01:50.693Z,9.70
2018-05-18T18:04:18.008Z,10.17
2018-05-18T18:06:45.165Z,8.93
2018-05-18T18:09:12.385Z,9.17
2018-05-18T18:11:39.434Z,9.20
2018-05-18T18:14:06.783Z,9.13
2018-05-18T18:16:33.835Z,10.17
2018-05-18T18:19:01.153Z,10.80
2018-05-18T18:21:28.388Z,10.57
2018-05-18T18:23:55.613Z,10.30
2018-05-18T18:26:22.802Z,11.90
2018-05-18T18:28:50.811Z,10.80
2018-05-18T18:31:18.613Z,10.47
2018-05-18T18:33:46.877Z,10.30
2018-05-18T18:36:14.024Z,11.63
2018-05-18T18:38:41.107Z,10.27
2018-05-18T18:41:08.173Z,11.50
2018-05-18T18:43:35.405Z,9.63
2018-05-18T18:46:03.831Z,10.33
2018-05-18T18:48:31.594Z,10.80
2018-05-18T18:50:58.684Z,10.87
2018-05-18T18:53:27.792Z,9.43
2018-05-18T18:55:55.584Z,10.13
2018-05-18T18:58:22.690Z,11.23
2018-05-18T19:00:49.778Z,11.10
2018-05-18T19:03:21.869Z,11.93
2018-05-18T19:05:48.958Z,11.07
2018-05-18T19:08:16.151Z,11.00
2018-05-18T19:10:43.193Z,10.80
2018-05-18T19:13:13.734Z,10.93
2018-05-18T19:15:40.814Z,11.80
2018-05-18T19:18:07.935Z,11.07
2018-05-18T19:20:35.085Z,11.27
2018-05-18T19:23:10.153Z,11.67
2018-05-18T19:25:37.212Z,13.03
2018-05-18T19:28:04.296Z,12.70
2018-05-18T19:30:31.380Z,12.57
2018-05-18T19:33:09.509Z,11.50
2018-05-18T19:35:36.620Z,10.33
2018-05-18T19:38:03.725Z,11.63
2018-05-18T19:40:30.810Z,10.97
2018-05-18T19:42:59.027Z,11.00
2018-05-18T19:45:27.056Z,9.93
2018-05-18T19:47:54.849Z,10.63
2018-05-18T19:50:22.116Z,9.77
2018-05-18T19:52:56.525Z,10.73
2018-05-18T19:55:24.275Z,11.80
2018-05-18T19:57:51.381Z,11.63
2018-05-18T20:00:18.504Z,10.53
2018-05-18T20:02:49.525Z,11.50
2018-05-18T20:05:19.391Z,13.10
2018-05-18T20:07:46.958Z,11.17
2018-05-18T20:10:14.852Z,11.43
2018-05-18T20:12:56.328Z,11.00
2018-05-18T20:15:23.485Z,10.67
2018-05-18T20:17:50.783Z,11.97
2018-05-18T20:20:18.046Z,10.57
2018-05-18T20:22:50.108Z,11.77
2018-05-18T20:25:18.167Z,11.10
2018-05-18T20:27:45.321Z,12.37
2018-05-18T20:30:12.670Z,11.60
2018-05-18T20:33:01.276Z,11.50
2018-05-18T20:35:28.462Z,10.93
2018-05-18T20:37:56.373Z,9.80
2018-05-18T20:40:23.823Z,11.43
2018-05-18T20:42:51.121Z,11.10
2018-05-18T20:45:19.380Z,12.80
2018-05-18T20:47:46.529Z,11.40
2018-05-18T20:50:15.599Z,11.83
2018-05-18T20:52:53.495Z,11.30
2018-05-18T20:55:21.664Z,11.77
2018-05-18T20:57:48.873Z,11.30
2018-05-18T21:00:15.986Z,11.63
2018-05-18T21:02:45.681Z,11.00
2018-05-18T21:05:14.285Z,10.63
2018-05-18T21:07:43.800Z,11.00
2018-05-18T21:10:16.623Z,10.87
2018-05-18T21:12:46.385Z,11.13
2018-05-18T21:15:17.676Z,12.10
2018-05-18T21:17:45.606Z,11.00
2018-05-18T21:20:12.742Z,10.57
2018-05-18T21:23:00.257Z,10.87
2018-05-18T21:25:27.298Z,11.83
2018-05-18T21:28:00.260Z,10.70
2018-05-18T21:30:29.593Z,12.00
2018-05-18T21:33:02.769Z,10.33
2018-05-18T21:35:30.043Z,10.80
2018-05-18T21:37:57.944Z,10.10
2018-05-18T21:40:25.761Z,10.23
2018-05-18T21:42:54.782Z,10.73
2018-05-18T21:45:21.898Z,11.00
2018-05-18T21:47:49.079Z,9.97
2018-05-18T21:50:19.886Z,10.07
2018-05-18T21:52:54.124Z,10.57
2018-05-18T21:55:21.570Z,11.30
2018-05-18T21:57:50.449Z,10.00
2018-05-18T22:00:17.979Z,10.50
2018-05-18T22:02:46.255Z,10.60
2018-05-18T22:05:14.474Z,12.47
2018-05-18T22:07:41.573Z,11.07
2018-05-18T22:10:13.065Z,10.60
2018-05-18T22:12:55.213Z,10.33
2018-05-18T22:15:22.349Z,11.13
2018-05-18T22:17:52.372Z,12.10
2018-05-18T22:20:19.604Z,13.10
2018-05-18T22:22:50.668Z,11.60
2018-05-18T22:25:17.797Z,11.57
2018-05-18T22:27:44.961Z,11.47
2018-05-18T22:30:12.224Z,10.67
2018-05-18T22:32:40.468Z,11.87
2018-05-18T22:35:07.611Z,11.80
2018-05-18T22:37:35.410Z,12.03
2018-05-18T22:40:02.565Z,11.50
2018-05-18T22:42:30.773Z,10.93
2018-05-18T22:44:57.952Z,11.93
2018-05-18T22:47:25.023Z,10.43
2018-05-18T22:49:54.397Z,11.23
2018-05-18T22:52:22.623Z,10.20
2018-05-18T22:54:49.744Z,12.23
2018-05-18T22:57:16.865Z,10.80
2018-05-18T22:59:44.075Z,11.27
2018-05-18T23:02:21.282Z,9.70
2018-05-18T23:04:48.415Z,10.67
2018-05-18T23:07:15.537Z,10.30
2018-05-18T23:09:43.615Z,9.73
2018-05-18T23:12:12.806Z,11.00
2018-05-18T23:14:41.111Z,10.70
2018-05-18T23:17:08.629Z,11.03
2018-05-18T23:19:36.418Z,10.33
2018-05-18T23:22:06.791Z,11.50
2018-05-18T23:24:34.689Z,11.13
2018-05-18T23:27:01.809Z,12.93
2018-05-18T23:29:28.955Z,10.37
2018-05-18T23:31:59.330Z,11.73
2018-05-18T23:34:27.277Z,11.53
2018-05-18T23:36:54.833Z,9.97
2018-05-18T23:39:22.189Z,9.90
2018-05-18T23:41:53.437Z,10.00
2018-05-18T23:44:20.654Z,11.30
2018-05-18T23:46:47.753Z,10.80
2018-05-18T23:49:14.898Z,10.50
2018-05-18T23:51:42.926Z,10.23
2018-05-18T23:54:10.045Z,9.57
2018-05-18T23:56:37.928Z,10.60
2018-05-18T23:59:05.188Z,10.70
